Time;durP1;ratioP1;P1;durP2;ratioP2;P2;SDS_P1;SDS_P2;PMS_P1;PMS_P2;Temp;Humidity;BMP_temperature;BMP_pressure;BME280_temperature;BME280_humidity;BME280_pressure;Samples;Min_cycle;Max_cycle;Signal;HPM_P1;HPM_P2
2022/12/18 00:02:02;;;;;;;3.30;2.00;;;;;;;6.58;100.00;95383.47;5017634;28;20342;-75
2022/12/18 00:04:29;;;;;;;2.75;1.73;;;;;;;6.43;100.00;95369.06;5030595;28;20204;-76
2022/12/18 00:06:55;;;;;;;4.93;1.90;;;;;;;6.36;100.00;95374.00;5031101;28;20212;-76
2022/12/18 00:09:22;;;;;;;2.03;1.55;;;;;;;6.28;100.00;95377.31;5028709;28;20244;-75
2022/12/18 00:11:49;;;;;;;7.97;2.08;;;;;;;6.21;100.00;95382.19;5024939;28;20733;-77
2022/12/18 00:14:16;;;;;;;3.92;1.83;;;;;;;6.31;100.00;95381.28;5021447;28;20286;-74
2022/12/18 00:16:45;;;;;;;1.80;1.35;;;;;;;6.17;100.00;95381.13;5021381;28;20204;-75
2022/12/18 00:19:13;;;;;;;1.33;1.23;;;;;;;6.19;100.00;95383.53;5021891;28;20258;-74
2022/12/18 00:21:41;;;;;;;4.20;2.03;;;;;;;6.10;100.00;95396.81;5023419;28;20224;-74
2022/12/18 00:24:09;;;;;;;3.13;2.08;;;;;;;6.14;100.00;95392.47;5026638;28;20683;-74
2022/12/18 00:26:38;;;;;;;2.20;1.60;;;;;;;6.11;100.00;95403.00;5016847;28;20201;-75
2022/12/18 00:29:07;;;;;;;2.70;1.40;;;;;;;6.12;100.00;95408.09;5018544;28;20553;-76
2022/12/18 00:31:34;;;;;;;2.08;1.38;;;;;;;6.06;100.00;95409.19;5017744;28;20657;-75
2022/12/18 00:34:01;;;;;;;3.38;2.13;;;;;;;6.06;100.00;95412.69;5025420;28;20266;-74
2022/12/18 00:36:31;;;;;;;4.05;2.17;;;;;;;5.99;100.00;95406.84;5023097;28;20239;-75
2022/12/18 00:38:59;;;;;;;1.98;1.30;;;;;;;5.97;100.00;95413.56;5023944;28;20204;-75
2022/12/18 00:44:13;;;;;;;1.67;1.58;;;;;;;5.92;100.00;95424.34;5028715;28;20586;-75
2022/12/18 00:46:41;;;;;;;3.83;1.98;;;;;;;5.90;100.00;95419.25;5027713;28;20282;-76
2022/12/18 00:49:08;;;;;;;4.00;2.10;;;;;;;5.88;100.00;95420.56;5028282;28;20213;-74
2022/12/18 00:51:36;;;;;;;1.70;1.33;;;;;;;5.96;100.00;95422.72;5028690;28;20208;-75
2022/12/18 00:54:03;;;;;;;5.70;2.03;;;;;;;5.94;100.00;95424.88;5028638;28;20753;-77
2022/12/18 00:56:30;;;;;;;3.72;1.88;;;;;;;5.93;100.00;95434.03;5028675;28;20680;-76
2022/12/18 00:58:56;;;;;;;4.53;2.70;;;;;;;5.94;100.00;95430.25;5027826;28;20613;-76
2022/12/18 01:01:23;;;;;;;5.85;3.22;;;;;;;5.91;100.00;95441.56;5027360;28;20302;-77
2022/12/18 01:03:50;;;;;;;5.55;2.75;;;;;;;5.90;100.00;95427.31;5027487;28;20231;-76
2022/12/18 01:06:17;;;;;;;4.22;1.90;;;;;;;5.80;100.00;95429.22;5027685;28;20239;-76
2022/12/18 01:08:45;;;;;;;9.77;3.55;;;;;;;5.84;100.00;95435.66;5028036;28;20313;-76
2022/12/18 01:11:15;;;;;;;1.55;1.38;;;;;;;5.80;100.00;95442.66;5028418;28;20208;-75
2022/12/18 01:13:43;;;;;;;1.13;0.98;;;;;;;5.65;100.00;95449.72;5028279;28;20733;-75
2022/12/18 01:16:12;;;;;;;2.45;1.77;;;;;;;5.53;100.00;95446.56;5028609;28;20215;-76
2022/12/18 01:18:39;;;;;;;2.60;1.92;;;;;;;5.47;100.00;95453.03;5029402;28;20204;-76
2022/12/18 01:21:07;;;;;;;3.50;2.20;;;;;;;5.40;100.00;95451.72;5028881;28;20302;-76
2022/12/18 01:23:34;;;;;;;3.92;2.78;;;;;;;5.45;100.00;95449.03;5029478;28;20204;-77
2022/12/18 01:26:07;;;;;;;5.75;3.05;;;;;;;5.43;100.00;95457.34;5029290;28;20208;-76
2022/12/18 01:28:34;;;;;;;5.85;2.88;;;;;;;5.41;100.00;95454.13;5029161;28;20587;-76
2022/12/18 01:31:11;;;;;;;2.33;1.88;;;;;;;5.32;100.00;95466.53;5029063;28;20659;-75
2022/12/18 01:33:38;;;;;;;2.25;1.83;;;;;;;5.26;100.00;95467.63;5029469;28;20437;-76
2022/12/18 01:36:05;;;;;;;4.38;2.47;;;;;;;5.32;100.00;95466.53;5029497;28;20212;-77
2022/12/18 01:38:32;;;;;;;6.10;2.58;;;;;;;5.29;100.00;95467.88;5029548;28;20624;-76
2022/12/18 01:40:59;;;;;;;2.38;1.80;;;;;;;5.32;100.00;95466.53;5028719;28;20702;-77
2022/12/18 01:43:46;;;;;;;4.20;2.42;;;;;;;5.13;100.00;95460.94;5028959;28;20208;-74
2022/12/18 01:46:13;;;;;;;7.80;4.00;;;;;;;5.13;100.00;95469.00;5029172;28;20219;-77
2022/12/18 01:48:40;;;;;;;7.38;2.90;;;;;;;5.16;100.00;95470.34;5028557;28;20655;-76
2022/12/18 01:51:10;;;;;;;6.32;3.20;;;;;;;5.14;100.00;95465.25;5028406;28;20289;-76
2022/12/18 01:53:39;;;;;;;3.03;1.77;;;;;;;5.12;100.00;95471.94;5028617;28;20225;-76
2022/12/18 01:56:07;;;;;;;4.50;3.20;;;;;;;5.00;100.00;95473.06;5029140;28;20266;-74
2022/12/18 01:58:47;;;;;;;3.40;2.38;;;;;;;4.93;100.00;95480.56;5028928;28;20281;-75
2022/12/18 02:01:15;;;;;;;2.72;1.70;;;;;;;4.88;100.00;95485.16;5028170;28;20215;-75
2022/12/18 02:03:43;;;;;;;3.78;2.25;;;;;;;4.88;100.00;95472.53;5028778;28;20307;-76
2022/12/18 02:06:16;;;;;;;3.45;1.90;;;;;;;4.80;100.00;95475.75;5028612;28;20288;-76
2022/12/18 02:08:54;;;;;;;3.90;2.28;;;;;;;4.82;100.00;95481.66;5028551;28;20354;-77
2022/12/18 02:11:30;;;;;;;2.20;1.58;;;;;;;4.80;100.00;95497.22;5028997;28;20266;-75
2022/12/18 02:14:05;;;;;;;6.43;2.53;;;;;;;4.81;100.00;95485.41;5028998;28;20748;-76
2022/12/18 02:16:39;;;;;;;1.17;1.05;;;;;;;4.90;100.00;95491.88;5031448;28;20606;-76
2022/12/18 02:19:16;;;;;;;5.47;2.88;;;;;;;4.84;100.00;95498.31;5032767;28;20200;-78
2022/12/18 02:21:53;;;;;;;2.05;1.33;;;;;;;4.96;100.00;95493.44;5031982;28;20224;-77
2022/12/18 02:24:34;;;;;;;6.30;2.75;;;;;;;5.02;100.00;95499.63;5044874;28;20202;-76
2022/12/18 02:27:05;;;;;;;4.15;2.58;;;;;;;4.96;100.00;95500.69;5032396;28;20266;-76
2022/12/18 02:29:38;;;;;;;4.07;2.03;;;;;;;4.85;100.00;95494.53;5031902;28;20205;-76
2022/12/18 02:32:11;;;;;;;1.52;1.27;;;;;;;4.82;100.00;95499.63;5032275;28;20207;-78
2022/12/18 02:34:39;;;;;;;2.65;1.20;;;;;;;4.83;100.00;95496.69;5031608;28;20668;-76
2022/12/18 02:37:10;;;;;;;3.67;2.58;;;;;;;4.77;100.00;95508.53;5033486;28;20690;-77
2022/12/18 02:39:42;;;;;;;4.32;2.72;;;;;;;4.76;100.00;95501.53;5031912;28;20575;-77
2022/12/18 02:42:11;;;;;;;4.65;2.42;;;;;;;4.83;100.00;95504.75;5031826;28;20235;-76
2022/12/18 02:44:43;;;;;;;4.78;3.08;;;;;;;4.85;100.00;95510.66;5031920;28;20678;-77
2022/12/18 02:47:11;;;;;;;1.55;1.23;;;;;;;4.78;100.00;95515.50;5032252;28;20210;-76
2022/12/18 02:49:49;;;;;;;5.18;2.67;;;;;;;4.67;100.00;95503.13;5032052;28;20287;-76
2022/12/18 02:52:24;;;;;;;4.43;2.15;;;;;;;4.73;100.00;95509.31;5031534;28;20207;-77
2022/12/18 02:54:59;;;;;;;2.15;1.00;;;;;;;4.60;100.00;95510.66;5031680;28;20611;-77
2022/12/18 02:57:35;;;;;;;6.18;2.60;;;;;;;4.52;100.00;95522.72;5032057;28;20188;-77
2022/12/18 03:00:07;;;;;;;4.38;2.55;;;;;;;4.51;100.00;95521.09;5031785;28;20762;-77
2022/12/18 03:02:40;;;;;;;3.00;2.00;;;;;;;4.57;100.00;95521.91;5031691;28;20224;-76
2022/12/18 03:05:14;;;;;;;5.75;2.90;;;;;;;4.49;100.00;95525.16;5031266;28;20258;-77
2022/12/18 03:07:47;;;;;;;1.63;1.17;;;;;;;4.43;100.00;95528.88;5031631;28;20208;-77
2022/12/18 03:10:19;;;;;;;3.45;2.35;;;;;;;4.37;100.00;95530.78;5031171;28;20266;-76
2022/12/18 03:12:54;;;;;;;5.50;3.03;;;;;;;4.31;100.00;95528.34;5031522;28;20208;-78
2022/12/18 03:15:25;;;;;;;4.40;1.58;;;;;;;4.38;100.00;95535.03;5031973;28;20200;-77
2022/12/18 03:18:00;;;;;;;3.53;2.17;;;;;;;4.44;100.00;95535.84;5031596;28;20208;-78
2022/12/18 03:20:31;;;;;;;4.45;2.53;;;;;;;4.53;100.00;95528.88;5031616;28;20277;-75
2022/12/18 03:23:05;;;;;;;1.95;1.35;;;;;;;4.44;100.00;95527.81;5032305;28;20220;-77
2022/12/18 03:25:34;;;;;;;4.38;2.83;;;;;;;4.42;100.00;95528.06;5039836;28;20197;-76
2022/12/18 03:28:08;;;;;;;4.32;2.17;;;;;;;4.42;100.00;95535.31;5030920;28;20730;-76
2022/12/18 03:30:39;;;;;;;2.72;1.45;;;;;;;4.41;100.00;95541.75;5031657;28;20227;-75
2022/12/18 03:33:11;;;;;;;2.60;1.65;;;;;;;4.42;100.00;95543.38;5031251;28;20317;-77
2022/12/18 03:35:41;;;;;;;2.90;2.55;;;;;;;4.42;100.00;95548.72;5030725;28;20204;-74
2022/12/18 03:38:08;;;;;;;1.08;0.98;;;;;;;4.34;100.00;95563.47;5030940;28;20293;-76
2022/12/18 03:40:46;;;;;;;2.00;1.27;;;;;;;4.35;100.00;95558.91;5030726;28;20212;-75
2022/12/18 03:43:20;;;;;;;4.03;2.08;;;;;;;4.35;100.00;95562.41;5031149;28;20216;-76
2022/12/18 03:45:54;;;;;;;5.25;2.55;;;;;;;4.41;100.00;95565.88;5031170;28;20204;-77
2022/12/18 03:48:28;;;;;;;2.30;1.90;;;;;;;4.42;100.00;95571.00;5030782;28;20246;-77
2022/12/18 03:50:58;;;;;;;3.63;2.60;;;;;;;4.45;100.00;95575.03;5017384;28;20226;-78
2022/12/18 03:53:33;;;;;;;1.77;1.17;;;;;;;4.44;99.93;95578.78;5030188;28;20297;-78
2022/12/18 03:56:02;;;;;;;3.90;1.42;;;;;;;4.47;99.04;95587.13;5030901;28;20203;-77
2022/12/18 03:58:33;;;;;;;2.22;1.52;;;;;;;4.45;98.57;95586.56;5030822;28;20220;-78
2022/12/18 04:01:03;;;;;;;2.95;1.63;;;;;;;4.47;98.54;95594.34;5030343;28;20211;-77
2022/12/18 04:03:32;;;;;;;3.45;2.05;;;;;;;4.48;98.25;95590.59;5029873;28;20679;-75
2022/12/18 04:06:01;;;;;;;2.40;1.55;;;;;;;4.41;98.65;95584.66;5029876;28;20262;-76
2022/12/18 04:08:29;;;;;;;3.58;2.88;;;;;;;4.45;98.95;95596.50;5030114;28;20680;-77
2022/12/18 04:10:56;;;;;;;2.00;1.80;;;;;;;4.48;98.55;95593.28;5030524;28;20213;-76
2022/12/18 04:13:24;;;;;;;4.22;1.60;;;;;;;4.40;98.09;95588.41;5030377;28;20214;-77
2022/12/18 04:15:52;;;;;;;5.88;2.80;;;;;;;4.44;97.15;95600.25;5030011;28;20212;-77
2022/12/18 04:18:19;;;;;;;3.28;2.05;;;;;;;4.36;96.82;95600.75;5030075;28;20494;-75
2022/12/18 04:20:46;;;;;;;1.70;1.50;;;;;;;4.34;97.46;95603.72;5030520;28;20204;-77
2022/12/18 04:23:13;;;;;;;3.67;2.30;;;;;;;4.43;97.10;95607.47;5034083;28;20702;-76
2022/12/18 04:25:39;;;;;;;1.98;1.58;;;;;;;4.42;97.19;95613.09;5036647;28;20208;-78
2022/12/18 04:28:07;;;;;;;4.95;1.77;;;;;;;4.40;95.59;95604.50;5030120;28;20216;-74
2022/12/18 04:30:33;;;;;;;4.47;1.20;;;;;;;4.41;95.88;95617.66;5030222;28;20204;-76
2022/12/18 04:33:04;;;;;;;1.92;1.17;;;;;;;4.38;95.79;95617.38;5030060;28;20562;-77
2022/12/18 04:35:31;;;;;;;2.38;1.95;;;;;;;4.37;95.41;95621.16;5030035;28;20201;-75
2022/12/18 04:37:57;;;;;;;2.47;2.28;;;;;;;4.36;94.25;95630.28;5029120;28;20208;-75
2022/12/18 04:40:24;;;;;;;3.35;2.20;;;;;;;4.26;93.30;95636.38;5030143;28;20204;-76
2022/12/18 04:42:51;;;;;;;4.60;3.03;;;;;;;4.26;93.56;95639.88;5030135;28;20282;-77
2022/12/18 04:45:18;;;;;;;4.65;2.15;;;;;;;4.39;93.14;95640.44;5029967;28;20208;-78
2022/12/18 04:47:44;;;;;;;5.43;2.60;;;;;;;4.32;93.41;95646.06;5030611;28;20200;-75
2022/12/18 04:50:13;;;;;;;2.50;2.05;;;;;;;4.35;93.12;95639.38;5029948;28;20242;-76
2022/12/18 04:52:39;;;;;;;2.53;1.75;;;;;;;4.39;93.04;95651.19;5029741;28;20250;-78
2022/12/18 04:55:06;;;;;;;8.60;2.10;;;;;;;4.23;92.45;95651.16;5029246;28;20605;-74
2022/12/18 04:57:33;;;;;;;3.85;2.92;;;;;;;4.22;92.14;95652.22;5030108;28;20204;-78
2022/12/18 05:00:00;;;;;;;5.60;2.13;;;;;;;4.20;92.25;95654.34;5029537;28;20262;-77
2022/12/18 05:02:28;;;;;;;4.80;3.00;;;;;;;4.13;91.95;95659.13;5029935;28;20240;-77
2022/12/18 05:04:55;;;;;;;6.15;1.65;;;;;;;4.12;92.00;95652.16;5029555;28;20274;-78
2022/12/18 05:07:23;;;;;;;2.92;2.47;;;;;;;4.14;92.55;95660.75;5029819;28;20212;-77
2022/12/18 05:09:50;;;;;;;3.13;1.83;;;;;;;4.14;92.39;95674.16;5029521;28;20201;-77
2022/12/18 05:12:17;;;;;;;5.43;2.65;;;;;;;4.04;92.20;95668.75;5029794;28;20208;-76
2022/12/18 05:14:43;;;;;;;2.13;1.80;;;;;;;4.08;92.04;95677.88;5029912;28;20204;-77
2022/12/18 05:17:10;;;;;;;4.80;3.13;;;;;;;4.07;92.23;95678.97;5029872;28;20200;-74
2022/12/18 05:19:40;;;;;;;4.55;2.75;;;;;;;4.03;92.16;95674.38;5029727;28;20204;-76
2022/12/18 05:22:06;;;;;;;1.13;0.98;;;;;;;4.08;92.18;95688.63;5029789;28;20699;-76
2022/12/18 05:24:35;;;;;;;6.15;2.25;;;;;;;4.01;92.61;95688.03;5041530;28;20211;-78
2022/12/18 05:27:02;;;;;;;2.63;2.03;;;;;;;3.97;92.79;95697.66;5028936;28;20273;-76
2022/12/18 05:29:28;;;;;;;4.05;3.08;;;;;;;3.96;92.68;95690.69;5029064;28;20219;-76
2022/12/18 05:31:55;;;;;;;4.00;2.63;;;;;;;3.98;92.54;95706.50;5029244;28;20238;-75
2022/12/18 05:34:22;;;;;;;4.97;2.90;;;;;;;4.00;92.15;95718.56;5029267;28;20618;-78
2022/12/18 05:36:49;;;;;;;4.38;2.80;;;;;;;4.05;92.26;95715.94;5029773;28;20208;-78
2022/12/18 05:39:15;;;;;;;5.55;2.50;;;;;;;4.07;92.17;95719.16;5029215;28;20207;-77
2022/12/18 05:41:44;;;;;;;6.55;2.60;;;;;;;4.08;92.12;95720.78;5028923;28;20220;-76
2022/12/18 05:44:10;;;;;;;4.45;2.50;;;;;;;4.10;91.98;95718.63;5029004;28;20729;-78
2022/12/18 05:46:37;;;;;;;4.90;2.55;;;;;;;4.15;92.23;95725.91;5029114;28;20262;-77
2022/12/18 05:49:04;;;;;;;6.32;3.15;;;;;;;4.13;91.63;95723.47;5029472;28;20666;-77
2022/12/18 05:51:31;;;;;;;5.05;1.95;;;;;;;3.98;91.01;95731.44;5033387;28;20212;-76
2022/12/18 05:53:58;;;;;;;7.07;2.92;;;;;;;3.99;90.56;95726.88;5033151;28;20255;-76
2022/12/18 05:56:24;;;;;;;8.05;3.15;;;;;;;3.85;91.05;95727.34;5032546;28;20207;-74
2022/12/18 05:58:54;;;;;;;7.53;3.33;;;;;;;3.83;91.09;95740.19;5032503;28;20212;-76
2022/12/18 06:01:23;;;;;;;3.08;1.95;;;;;;;3.83;91.39;95734.00;5033335;28;20215;-77
2022/12/18 06:03:50;;;;;;;7.00;2.70;;;;;;;3.78;91.10;95736.66;5033507;28;20294;-77
2022/12/18 06:06:19;;;;;;;3.85;2.30;;;;;;;3.81;91.50;95736.16;5032843;28;20208;-78
2022/12/18 06:08:46;;;;;;;2.75;1.88;;;;;;;3.86;91.13;95744.22;5033066;28;20251;-77
2022/12/18 06:11:13;;;;;;;4.80;3.03;;;;;;;3.90;91.33;95745.31;5032342;28;20212;-78
2022/12/18 06:13:40;;;;;;;6.70;3.30;;;;;;;3.82;91.30;95745.81;5032648;28;20205;-76
2022/12/18 06:16:08;;;;;;;3.97;2.65;;;;;;;3.88;91.41;95744.78;5032456;28;20625;-74
2022/12/18 06:18:38;;;;;;;6.90;2.70;;;;;;;3.88;90.69;95752.81;5032870;28;20688;-75
2022/12/18 06:21:07;;;;;;;10.10;4.20;;;;;;;3.95;90.61;95742.69;5032043;28;20682;-78
2022/12/18 06:23:34;;;;;;;6.03;2.88;;;;;;;3.97;90.66;95761.97;5038977;28;20237;-77
2022/12/18 06:26:05;;;;;;;4.13;2.67;;;;;;;4.07;90.77;95750.53;5036540;28;20266;-77
2022/12/18 06:28:32;;;;;;;2.22;1.67;;;;;;;4.07;90.97;95764.75;5032100;28;20204;-77
2022/12/18 06:30:59;;;;;;;6.18;3.08;;;;;;;4.05;91.07;95755.34;5033024;28;20231;-76
2022/12/18 06:33:28;;;;;;;7.10;3.25;;;;;;;4.11;90.72;95757.78;5032599;28;20590;-79
2022/12/18 06:35:55;;;;;;;4.32;2.75;;;;;;;4.16;89.86;95760.50;5031890;28;20208;-75
2022/12/18 06:38:22;;;;;;;4.10;2.42;;;;;;;4.11;89.83;95768.50;5033148;28;20267;-81
2022/12/18 06:40:49;;;;;;;5.15;2.92;;;;;;;4.12;89.94;95770.13;5032977;28;20808;-79
2022/12/18 06:43:16;;;;;;;4.28;2.92;;;;;;;4.14;89.12;95777.91;5032666;28;20240;-80
2022/12/18 06:45:43;;;;;;;3.35;2.30;;;;;;;4.14;89.31;95784.09;5032833;28;20212;-77
2022/12/18 06:48:09;;;;;;;5.78;3.08;;;;;;;4.21;89.64;95779.31;5029467;28;20212;-77
2022/12/18 06:50:38;;;;;;;5.90;3.15;;;;;;;4.18;88.90;95785.19;5031710;28;20651;-78
2022/12/18 06:53:04;;;;;;;3.75;2.33;;;;;;;4.16;88.60;95787.31;5032262;28;20213;-80
2022/12/18 06:55:31;;;;;;;4.53;3.00;;;;;;;4.15;88.35;95796.44;5032342;28;20204;-78
2022/12/18 06:57:58;;;;;;;2.47;1.85;;;;;;;4.19;87.83;95791.38;5031935;28;20609;-80
2022/12/18 07:00:26;;;;;;;3.20;2.00;;;;;;;4.20;87.79;95804.53;5030882;28;20215;-79
2022/12/18 07:02:52;;;;;;;6.15;3.40;;;;;;;4.18;87.75;95789.75;5031250;28;20698;-76
2022/12/18 07:05:19;;;;;;;3.42;2.15;;;;;;;4.15;87.19;95791.06;5031559;28;20217;-77
2022/12/18 07:07:47;;;;;;;6.93;3.15;;;;;;;4.17;87.13;95798.84;5032082;28;20236;-78
2022/12/18 07:10:14;;;;;;;6.07;2.85;;;;;;;4.23;87.01;95808.56;5031354;28;20599;-76
2022/12/18 07:12:41;;;;;;;8.18;3.40;;;;;;;4.22;86.98;95810.44;5030698;28;20204;-78
2022/12/18 07:15:08;;;;;;;4.57;2.30;;;;;;;4.11;87.02;95794.50;5031021;28;20546;-76
2022/12/18 07:17:35;;;;;;;4.55;2.35;;;;;;;4.22;87.14;95807.75;5030887;28;20659;-78
2022/12/18 07:20:02;;;;;;;7.22;3.55;;;;;;;4.33;87.38;95807.81;5033777;28;20219;-84
2022/12/18 07:22:29;;;;;;;3.95;2.90;;;;;;;4.49;86.82;95806.84;5034705;28;20208;-84
2022/12/18 07:24:57;;;;;;;5.25;3.50;;;;;;;5.03;88.21;95809.22;5046886;28;20725;-84
2022/12/18 07:27:24;;;;;;;3.33;2.50;;;;;;;5.09;86.18;95811.66;5034545;28;20208;-81
2022/12/18 07:29:51;;;;;;;7.65;3.90;;;;;;;4.48;84.46;95821.31;5030463;28;20717;-76
2022/12/18 07:32:17;;;;;;;5.28;3.17;;;;;;;4.44;84.46;95825.56;5030647;28;20239;-78
2022/12/18 07:34:44;;;;;;;5.97;3.20;;;;;;;4.23;86.10;95824.66;5031106;28;20266;-77
2022/12/18 07:37:11;;;;;;;3.20;2.08;;;;;;;4.20;85.66;95830.53;5031000;28;20708;-80
2022/12/18 07:39:38;;;;;;;6.60;3.17;;;;;;;4.13;86.12;95820.00;5030706;28;20208;-76
2022/12/18 07:44:53;;;;;;;8.00;4.05;;;;;;;4.33;86.17;95829.28;5030828;28;20212;-77
2022/12/18 07:47:19;;;;;;;7.93;4.03;;;;;;;4.29;86.16;95840.50;5030306;28;20216;-78
2022/12/18 07:49:46;;;;;;;7.30;3.33;;;;;;;4.36;85.48;95839.50;5030628;28;20615;-78
2022/12/18 07:52:13;;;;;;;7.07;3.25;;;;;;;4.26;85.21;95846.38;5030261;28;20656;-76
2022/12/18 07:54:40;;;;;;;5.45;3.47;;;;;;;4.27;85.07;95841.81;5030780;28;20719;-74
2022/12/18 07:57:08;;;;;;;9.80;3.47;;;;;;;4.34;85.26;95841.63;5030721;28;20274;-79
2022/12/18 07:59:35;;;;;;;8.73;3.80;;;;;;;4.32;85.93;95843.75;5029775;28;20571;-79
2022/12/18 08:02:02;;;;;;;6.55;4.10;;;;;;;4.24;85.01;95853.88;5029119;28;20208;-78
2022/12/18 08:04:29;;;;;;;4.38;3.38;;;;;;;4.08;85.63;95854.84;5030796;28;20879;-78
2022/12/18 08:06:56;;;;;;;5.80;3.20;;;;;;;4.07;86.30;95869.31;5030179;28;20300;-77
2022/12/18 08:09:23;;;;;;;6.38;3.20;;;;;;;4.13;85.63;95867.47;5030689;28;20240;-75
2022/12/18 08:11:49;;;;;;;11.07;3.13;;;;;;;4.05;85.94;95871.44;5031031;28;20262;-77
2022/12/18 08:14:18;;;;;;;9.45;4.15;;;;;;;4.14;85.85;95872.56;5030068;28;20204;-77
2022/12/18 08:16:44;;;;;;;3.40;2.45;;;;;;;4.18;85.68;95876.38;5029624;28;20218;-78
2022/12/18 08:19:11;;;;;;;16.20;6.03;;;;;;;3.99;85.89;95893.88;5030619;28;20615;-77
2022/12/18 08:21:38;;;;;;;10.23;5.13;;;;;;;3.95;86.01;95892.00;5030526;28;20659;-77
2022/12/18 08:24:06;;;;;;;6.45;3.50;;;;;;;3.97;86.54;95901.38;5041404;28;20310;-77
2022/12/18 08:26:34;;;;;;;6.88;3.90;;;;;;;4.10;85.85;95897.50;5031292;28;20690;-77
2022/12/18 08:29:01;;;;;;;5.53;2.78;;;;;;;3.96;85.94;95905.16;5030199;28;20212;-77
2022/12/18 08:31:30;;;;;;;9.68;5.07;;;;;;;4.05;85.84;95898.25;5028985;28;20209;-77
2022/12/18 08:33:58;;;;;;;5.07;2.97;;;;;;;4.11;85.47;95905.25;5029741;28;20265;-77
2022/12/18 08:36:26;;;;;;;8.27;3.28;;;;;;;3.92;85.68;95899.47;5029835;28;20212;-76
2022/12/18 08:38:53;;;;;;;8.35;3.50;;;;;;;3.92;86.19;95912.06;5029391;28;20235;-79
2022/12/18 08:41:20;;;;;;;6.68;3.60;;;;;;;3.84;86.54;95907.16;5029713;28;20216;-77
2022/12/18 08:46:38;;;;;;;6.45;3.95;;;;;;;3.94;86.65;95907.25;5029322;28;20199;-77
2022/12/18 08:49:06;;;;;;;7.53;4.05;;;;;;;3.85;86.79;95914.94;5030212;28;20342;-76
2022/12/18 08:51:33;;;;;;;22.50;11.20;;;;;;;3.88;86.79;95902.91;5029392;28;20200;-76
2022/12/18 08:54:00;;;;;;;6.05;2.97;;;;;;;3.92;85.83;95906.72;5028984;28;20228;-76
2022/12/18 08:56:27;;;;;;;6.32;3.13;;;;;;;3.87;86.09;95912.00;5029295;28;20208;-75
2022/12/18 08:58:54;;;;;;;5.93;3.03;;;;;;;4.06;85.95;95915.94;5029254;28;20211;-77
2022/12/18 09:01:21;;;;;;;7.38;3.97;;;;;;;4.03;85.87;95907.59;5028901;28;20208;-74
2022/12/18 09:03:50;;;;;;;6.85;3.50;;;;;;;3.96;85.88;95905.16;5029142;28;20236;-77
2022/12/18 09:06:18;;;;;;;9.43;5.05;;;;;;;4.03;86.04;95900.38;5028846;28;20446;-78
2022/12/18 09:08:46;;;;;;;6.47;3.28;;;;;;;4.10;85.84;95911.69;5028942;28;20236;-77
2022/12/18 09:11:15;;;;;;;9.63;4.57;;;;;;;3.99;85.81;95903.81;5029522;28;20239;-76
2022/12/18 09:13:42;;;;;;;10.38;5.13;;;;;;;3.96;85.26;95891.75;5029625;28;20835;-76
2022/12/18 09:16:09;;;;;;;11.95;5.63;;;;;;;4.01;85.72;95902.50;5029510;28;20274;-76
2022/12/18 09:18:36;;;;;;;7.13;3.83;;;;;;;3.88;85.71;95892.19;5028937;28;20729;-78
2022/12/18 09:21:10;;;;;;;9.88;4.65;;;;;;;3.88;85.28;95900.22;5029108;28;20207;-72
2022/12/18 09:23:37;;;;;;;6.90;2.95;;;;;;;4.12;85.42;95909.56;5035548;28;20730;-80
2022/12/18 09:26:04;;;;;;;8.30;3.78;;;;;;;4.08;84.74;95902.28;5033242;28;20622;-78
2022/12/18 09:28:31;;;;;;;15.73;3.92;;;;;;;4.27;84.27;95901.63;5029100;28;20212;-78
2022/12/18 09:30:58;;;;;;;20.38;3.42;;;;;;;4.22;84.46;95898.94;5028924;28;20278;-77
2022/12/18 09:33:25;;;;;;;9.50;3.80;;;;;;;4.24;84.01;95890.59;5028911;28;20715;-76
2022/12/18 09:35:51;;;;;;;6.68;3.58;;;;;;;4.19;84.35;95904.00;5029268;28;20216;-79
2022/12/18 09:38:20;;;;;;;11.88;4.30;;;;;;;4.11;83.30;95907.13;5029662;28;20235;-75
2022/12/18 09:40:50;;;;;;;3.10;1.95;;;;;;;4.16;82.86;95905.31;5029218;28;20707;-76
2022/12/18 09:43:21;;;;;;;5.95;2.38;;;;;;;4.22;82.16;95904.31;5030349;28;20536;-74
2022/12/18 09:45:53;;;;;;;9.13;4.40;;;;;;;4.06;82.21;95909.78;5015673;28;20339;-77
2022/12/18 09:48:25;;;;;;;9.70;4.28;;;;;;;4.13;82.27;95894.28;5028298;28;20259;-77
2022/12/18 09:50:56;;;;;;;6.38;3.40;;;;;;;4.41;81.92;95906.56;5028925;28;20266;-79
2022/12/18 09:53:28;;;;;;;5.38;2.97;;;;;;;4.86;80.48;95898.03;5029105;28;20228;-79
2022/12/18 09:55:57;;;;;;;9.07;4.43;;;;;;;4.95;80.84;95885.72;5029370;28;20611;-77
2022/12/18 09:58:31;;;;;;;7.90;4.15;;;;;;;4.88;79.94;95901.25;5028933;28;20663;-76
2022/12/18 10:00:58;;;;;;;9.18;3.20;;;;;;;5.14;79.37;95894.13;5028899;28;20209;-79
2022/12/18 10:03:25;;;;;;;8.63;4.95;;;;;;;5.20;80.08;95903.81;5028162;28;20693;-78
2022/12/18 10:06:03;;;;;;;4.50;3.17;;;;;;;4.79;78.11;95887.50;5029585;28;20250;-76
2022/12/18 10:08:40;;;;;;;7.22;3.38;;;;;;;4.79;79.36;95900.91;5028518;28;20690;-78
2022/12/18 10:11:28;;;;;;;8.45;3.50;;;;;;;4.64;78.48;95907.03;5028963;28;20231;-79
2022/12/18 10:14:02;;;;;;;7.18;3.38;;;;;;;4.62;79.06;95908.34;5009307;28;20259;-79
2022/12/18 10:16:37;;;;;;;12.68;4.70;;;;;;;4.37;79.52;95906.28;5025579;28;20211;-78
2022/12/18 10:19:27;;;;;;;4.97;2.80;;;;;;;4.41;79.94;95904.69;5028547;28;20203;-77
2022/12/18 10:22:02;;;;;;;10.85;3.50;;;;;;;4.48;80.57;95907.19;5016712;28;20723;-76
2022/12/18 10:24:38;;;;;;;8.93;4.00;;;;;;;4.61;79.58;95912.09;5025966;28;20219;-77
2022/12/18 10:27:14;;;;;;;11.55;4.55;;;;;;;4.56;79.35;95909.38;5021325;28;20554;-77
2022/12/18 10:29:43;;;;;;;4.53;2.40;;;;;;;4.66;78.43;95909.41;5024330;28;20604;-75
2022/12/18 10:32:16;;;;;;;8.30;4.25;;;;;;;4.64;78.52;95908.91;5020585;28;20208;-77
2022/12/18 10:34:46;;;;;;;7.50;5.72;;;;;;;4.60;77.66;95910.47;5027862;28;20694;-76
2022/12/18 10:37:17;;;;;;;6.30;2.63;;;;;;;4.49;78.42;95903.44;5029500;28;20205;-75
2022/12/18 10:39:45;;;;;;;5.68;3.42;;;;;;;4.53;78.04;95899.94;5031017;28;20614;-75
2022/12/18 10:42:17;;;;;;;7.28;3.30;;;;;;;4.77;77.96;95911.13;5031222;28;20204;-76
2022/12/18 10:44:44;;;;;;;10.30;4.35;;;;;;;4.81;78.04;95909.53;5030564;28;20722;-76
2022/12/18 10:47:15;;;;;;;5.78;3.63;;;;;;;4.42;77.55;95898.28;5027356;28;20290;-73
2022/12/18 10:49:48;;;;;;;12.98;5.15;;;;;;;4.41;77.47;95906.56;5026648;28;20655;-77
2022/12/18 10:52:18;;;;;;;7.68;3.63;;;;;;;4.63;77.50;95905.41;5029914;28;20196;-75
2022/12/18 10:54:53;;;;;;;5.55;3.72;;;;;;;4.64;78.20;95906.22;5029889;28;20267;-76
2022/12/18 10:57:33;;;;;;;6.68;3.55;;;;;;;4.72;78.08;95897.66;5029092;28;20254;-75
2022/12/18 11:00:22;;;;;;;5.00;2.72;;;;;;;4.76;77.58;95903.34;5029502;28;20204;-76
2022/12/18 11:02:49;;;;;;;8.55;4.47;;;;;;;4.92;76.87;95903.13;5029309;28;20735;-75
2022/12/18 11:05:28;;;;;;;10.70;4.38;;;;;;;4.88;75.93;95902.06;5029079;28;20236;-77
2022/12/18 11:07:56;;;;;;;5.10;2.47;;;;;;;5.03;75.54;95895.16;5030359;28;20240;-77
2022/12/18 11:10:29;;;;;;;10.10;3.90;;;;;;;4.69;75.25;95908.09;5030276;28;20208;-76
2022/12/18 11:12:56;;;;;;;4.75;2.35;;;;;;;4.70;74.67;95907.84;5030112;28;20607;-78
2022/12/18 11:15:30;;;;;;;4.63;2.33;;;;;;;4.56;73.53;95909.38;5029966;28;20235;-76
2022/12/18 11:17:58;;;;;;;5.03;3.10;;;;;;;4.53;73.56;95905.31;5030223;28;20197;-75
2022/12/18 11:20:32;;;;;;;7.03;2.83;;;;;;;4.35;73.71;95902.25;5030048;28;20204;-76
2022/12/18 11:23:01;;;;;;;8.77;4.07;;;;;;;4.36;74.68;95906.56;5031194;28;20199;-78
2022/12/18 11:25:30;;;;;;;5.25;2.42;;;;;;;4.63;74.03;95915.34;5040430;28;20576;-75
2022/12/18 11:27:59;;;;;;;6.32;3.72;;;;;;;4.58;74.27;95912.59;5030171;28;20208;-76
2022/12/18 11:30:27;;;;;;;5.82;3.63;;;;;;;4.64;73.08;95906.22;5029856;28;20250;-75
2022/12/18 11:32:59;;;;;;;9.88;4.85;;;;;;;4.39;74.56;95898.78;5029964;28;20215;-74
2022/12/18 11:35:36;;;;;;;5.18;3.42;;;;;;;4.60;74.92;95908.59;5029676;28;20204;-78
2022/12/18 11:38:12;;;;;;;8.90;3.40;;;;;;;4.45;74.02;95895.06;5030203;28;20196;-79
2022/12/18 11:40:44;;;;;;;4.10;2.53;;;;;;;4.58;74.22;95908.03;5029143;28;20204;-77
2022/12/18 11:43:16;;;;;;;5.95;2.70;;;;;;;4.70;73.78;95907.84;5030037;28;20204;-77
2022/12/18 11:45:50;;;;;;;5.45;3.17;;;;;;;4.68;74.30;95911.84;5030085;28;20224;-79
2022/12/18 11:48:21;;;;;;;7.72;3.15;;;;;;;4.74;73.50;95911.63;5029541;28;20205;-77
2022/12/18 11:50:51;;;;;;;5.47;2.75;;;;;;;4.57;73.39;95914.47;5029850;28;20254;-76
2022/12/18 11:53:19;;;;;;;5.38;2.47;;;;;;;4.73;72.72;95910.03;5030738;28;20231;-75
2022/12/18 11:56:06;;;;;;;7.30;2.65;;;;;;;4.74;72.41;95916.19;5030189;28;20610;-80
2022/12/18 11:58:49;;;;;;;5.20;2.78;;;;;;;4.87;72.65;95900.44;5028951;28;20625;-80